Time;durP1;ratioP1;P1;durP2;ratioP2;P2;SDS_P1;SDS_P2;PMS_P1;PMS_P2;Temp;Humidity;BMP_temperature;BMP_pressure;BME280_temperature;BME280_humidity;BME280_pressure;Samples;Min_cycle;Max_cycle;Signal;HPM_P1;HPM_P2
2021/01/15 00:00:46;;;;;;;7.60;4.90;;;2.90;90.70;10.30;99372.00;;;;5027921;28;20384;-67
2021/01/15 00:03:12;;;;;;;6.50;4.53;;;2.80;90.60;10.50;99396.00;;;;5041200;28;20619;-68
2021/01/15 00:05:38;;;;;;;5.63;3.90;;;2.90;90.70;10.30;99385.00;;;;5030773;28;20179;-68
2021/01/15 00:08:05;;;;;;;7.10;4.15;;;2.90;90.70;10.30;99396.00;;;;5048613;28;20285;-67
2021/01/15 00:10:31;;;;;;;6.50;4.45;;;2.80;90.60;10.50;99399.00;;;;5047229;28;20189;-67
2021/01/15 00:12:57;;;;;;;6.23;4.03;;;2.80;90.60;10.40;99401.00;;;;5048147;28;20572;-68
2021/01/15 00:15:22;;;;;;;6.90;4.70;;;2.80;90.70;10.20;99403.00;;;;5030192;28;20178;-68
2021/01/15 00:17:48;;;;;;;7.33;5.03;;;2.80;90.60;10.30;99393.00;;;;5015238;28;20700;-68
2021/01/15 00:20:14;;;;;;;7.93;4.80;;;2.90;91.10;10.20;99396.00;;;;5031727;28;20197;-68
2021/01/15 00:22:43;;;;;;;6.70;3.97;;;2.90;90.70;10.40;99386.00;;;;5048621;28;20228;-68
2021/01/15 00:25:12;;;;;;;9.15;4.93;;;2.80;90.60;10.40;99391.00;;;;5047203;28;20433;-68
2021/01/15 00:27:38;;;;;;;7.60;4.75;;;2.80;90.60;10.10;99391.00;;;;5030981;28;20754;-67
2021/01/15 00:30:06;;;;;;;6.80;4.40;;;2.90;90.70;10.20;99399.00;;;;5014834;28;20289;-68
2021/01/15 00:32:31;;;;;;;5.93;4.35;;;2.80;90.60;10.30;99401.00;;;;5031373;28;20707;-68
2021/01/15 00:34:57;;;;;;;6.07;3.73;;;2.80;90.60;10.30;99396.00;;;;5048521;28;20265;-69
2021/01/15 00:37:23;;;;;;;6.33;3.80;;;2.80;91.00;10.40;99398.00;;;;5031397;28;20575;-68
2021/01/15 00:39:49;;;;;;;6.53;4.10;;;2.80;90.60;10.30;99395.00;;;;5048391;28;20221;-69
2021/01/15 00:42:14;;;;;;;8.80;4.33;;;2.80;90.60;10.30;99397.00;;;;5031514;28;20209;-68
2021/01/15 00:44:45;;;;;;;7.90;4.70;;;2.80;90.70;10.30;99405.00;;;;5031479;28;20183;-68
2021/01/15 00:47:14;;;;;;;5.53;3.47;;;2.80;90.70;10.30;99396.00;;;;5016891;28;20669;-67
2021/01/15 00:49:40;;;;;;;6.97;4.05;;;2.80;90.60;10.30;99400.00;;;;4999737;28;20186;-67
2021/01/15 00:52:06;;;;;;;6.50;4.40;;;2.80;90.60;10.20;99390.00;;;;5047732;28;20533;-67
2021/01/15 00:54:32;;;;;;;6.82;3.83;;;2.80;90.60;10.10;99384.00;;;;5015695;28;20441;-67
2021/01/15 00:56:59;;;;;;;6.13;4.10;;;2.80;90.60;10.30;99400.00;;;;5031765;28;20213;-68
2021/01/15 00:59:25;;;;;;;7.70;4.15;;;2.80;90.60;10.30;99388.00;;;;5014677;28;20464;-68
2021/01/15 01:01:50;;;;;;;8.17;5.40;;;2.80;90.60;10.20;99382.00;;;;5031313;28;20236;-69
2021/01/15 01:04:16;;;;;;;7.00;4.67;;;2.80;90.60;10.30;99388.00;;;;5031959;28;20434;-68
2021/01/15 01:06:42;;;;;;;10.43;5.03;;;2.80;90.60;10.30;99395.00;;;;5030349;28;20645;-68
2021/01/15 01:09:08;;;;;;;7.40;4.00;;;2.90;90.70;10.30;99378.00;;;;5015364;28;20348;-68
2021/01/15 01:11:33;;;;;;;9.10;4.80;;;2.80;90.60;10.30;99393.00;;;;5014752;28;20201;-68
2021/01/15 01:13:59;;;;;;;6.50;4.67;;;2.80;90.60;10.30;99405.00;;;;5047565;28;20252;-68
2021/01/15 01:16:25;;;;;;;6.78;4.57;;;2.80;90.60;10.30;99388.00;;;;5014856;28;20178;-68
2021/01/15 01:18:51;;;;;;;6.50;4.50;;;2.80;90.60;10.30;99387.00;;;;5031567;28;20201;-67
2021/01/15 01:21:17;;;;;;;8.47;4.83;;;2.80;90.60;10.30;99407.00;;;;5047047;28;20471;-67
2021/01/15 01:23:43;;;;;;;9.47;4.37;;;2.80;90.60;10.40;99401.00;;;;5049420;28;20435;-68
2021/01/15 01:26:10;;;;;;;6.77;4.00;;;2.80;90.60;10.20;99404.00;;;;5048932;28;20253;-69
2021/01/15 01:28:36;;;;;;;7.85;4.20;;;2.80;90.60;10.20;99397.00;;;;5015347;28;20205;-68
2021/01/15 01:31:01;;;;;;;6.00;3.73;;;2.80;90.60;10.30;99396.00;;;;4998397;28;20182;-69
2021/01/15 01:33:27;;;;;;;5.73;4.07;;;2.80;90.60;10.20;99393.00;;;;5048658;28;20458;-68
2021/01/15 01:35:53;;;;;;;6.93;4.00;;;2.80;90.60;10.10;99399.00;;;;5014877;28;20474;-67
2021/01/15 01:38:19;;;;;;;8.77;4.83;;;2.80;90.60;10.30;99410.00;;;;5031607;28;20622;-68
2021/01/15 01:40:45;;;;;;;8.23;4.00;;;2.80;90.60;10.30;99407.00;;;;5047791;28;20852;-68
2021/01/15 01:43:11;;;;;;;7.28;4.10;;;2.80;90.60;10.20;99402.00;;;;5015281;28;20218;-67
2021/01/15 01:45:37;;;;;;;5.53;3.90;;;2.80;90.60;10.40;99406.00;;;;5051108;28;20185;-68
2021/01/15 01:48:03;;;;;;;5.63;3.73;;;2.80;90.60;10.40;99404.00;;;;5017669;28;20456;-68
2021/01/15 01:50:29;;;;;;;6.05;4.10;;;2.80;90.60;10.30;99398.00;;;;5034991;28;20212;-68
2021/01/15 01:52:55;;;;;;;8.10;4.78;;;2.90;91.00;10.30;99414.00;;;;5051230;28;20209;-68
2021/01/15 01:55:20;;;;;;;7.90;4.30;;;2.80;90.60;10.20;99414.00;;;;5050879;28;20715;-68
2021/01/15 01:57:46;;;;;;;7.80;4.47;;;2.80;91.00;10.10;99405.00;;;;5017870;28;20263;-68
2021/01/15 02:00:13;;;;;;;6.67;4.47;;;2.80;91.00;10.30;99410.00;;;;5018341;28;20178;-68
2021/01/15 02:02:38;;;;;;;6.90;4.20;;;2.80;90.60;10.30;99420.00;;;;5033267;28;20225;-68
2021/01/15 02:05:05;;;;;;;8.20;4.47;;;2.80;90.60;10.30;99400.00;;;;5051586;28;20315;-68
2021/01/15 02:07:31;;;;;;;7.50;4.28;;;2.80;90.60;10.30;99418.00;;;;5017893;28;20556;-68
2021/01/15 02:10:15;;;;;;;5.30;3.53;;;2.80;90.60;10.30;99415.00;;;;5033971;28;20182;-68
2021/01/15 02:12:56;;;;;;;7.05;4.65;;;2.80;90.60;10.30;99422.00;;;;5034335;28;20770;-68
2021/01/15 02:16:01;;;;;;;7.15;4.25;;;2.80;90.60;10.20;99402.00;;;;5051682;28;20236;-69
2021/01/15 02:18:45;;;;;;;9.10;4.43;;;2.80;90.60;10.10;99407.00;;;;5044600;28;20239;-68
2021/01/15 02:21:16;;;;;;;6.60;4.10;;;2.80;91.00;10.20;99425.00;;;;5035989;28;20182;-67
2021/01/15 02:23:43;;;;;;;6.22;3.72;;;2.80;90.60;10.10;99421.00;;;;5049662;28;20206;-67
2021/01/15 02:26:31;;;;;;;5.90;3.70;;;2.80;90.70;10.00;99422.00;;;;5017881;28;20186;-68
2021/01/15 02:29:18;;;;;;;8.48;4.55;;;2.80;90.60;10.10;99413.00;;;;5036729;28;20198;-68
2021/01/15 02:31:44;;;;;;;8.15;4.75;;;2.80;90.60;10.40;99429.00;;;;5017855;28;20244;-68
2021/01/15 02:34:55;;;;;;;6.23;4.10;;;2.80;90.60;10.40;99432.00;;;;5052477;28;20631;-68
2021/01/15 02:37:42;;;;;;;6.30;3.97;;;2.80;90.60;10.20;99425.00;;;;5049645;28;20263;-68
2021/01/15 02:40:28;;;;;;;4.97;3.00;;;2.80;90.60;10.30;99435.00;;;;5051371;28;20190;-68
2021/01/15 02:42:54;;;;;;;6.55;3.90;;;2.80;90.60;10.20;99432.00;;;;5001316;28;20676;-68
2021/01/15 02:45:20;;;;;;;6.40;3.50;;;2.80;90.60;10.40;99436.00;;;;5016776;28;20186;-69
2021/01/15 02:47:47;;;;;;;6.00;3.67;;;2.80;90.60;10.30;99431.00;;;;5017009;28;20301;-68
2021/01/15 02:50:19;;;;;;;8.15;4.30;;;2.80;90.70;10.30;99434.00;;;;5034226;28;20175;-68
2021/01/15 02:52:45;;;;;;;5.60;3.80;;;2.80;90.60;10.40;99433.00;;;;5017337;28;20428;-68
2021/01/15 02:55:11;;;;;;;6.80;4.40;;;2.80;90.70;10.40;99429.00;;;;5034082;28;20684;-68
2021/01/15 02:57:38;;;;;;;6.65;3.65;;;2.80;90.60;10.40;99438.00;;;;5017124;28;20198;-68
2021/01/15 03:00:09;;;;;;;5.07;2.92;;;2.80;90.70;10.40;99443.00;;;;5049980;28;20178;-68
2021/01/15 03:03:52;;;;;;;5.57;3.35;;;2.80;90.60;10.50;99426.00;;;;5000879;28;20688;-68
2021/01/15 03:06:34;;;;;;;6.10;3.60;;;2.80;90.70;10.40;99442.00;;;;5046853;28;20276;-68
2021/01/15 03:09:00;;;;;;;9.65;4.10;;;2.80;90.70;10.40;99437.00;;;;5034264;28;20218;-68
2021/01/15 03:11:27;;;;;;;7.40;4.20;;;2.80;90.70;10.40;99446.00;;;;5017083;28;20190;-68
2021/01/15 03:13:52;;;;;;;8.23;4.97;;;2.80;90.60;10.30;99444.00;;;;5016085;28;20466;-68
2021/01/15 03:16:18;;;;;;;6.53;3.70;;;2.80;90.70;10.40;99440.00;;;;5016750;28;20209;-68
2021/01/15 03:18:44;;;;;;;6.10;3.80;;;2.80;90.70;10.40;99439.00;;;;5033009;28;20245;-68
2021/01/15 03:21:09;;;;;;;6.80;4.10;;;2.80;90.60;10.40;99443.00;;;;5016352;28;20193;-68
2021/01/15 03:23:36;;;;;;;6.37;4.10;;;2.80;90.70;10.20;99448.00;;;;5016311;28;20256;-68
2021/01/15 03:26:02;;;;;;;6.10;3.72;;;2.80;90.70;10.30;99449.00;;;;5033425;28;20182;-68
2021/01/15 03:28:28;;;;;;;5.90;3.47;;;2.80;90.60;10.30;99423.00;;;;5031651;28;20244;-68
2021/01/15 03:30:53;;;;;;;5.30;3.70;;;2.80;90.60;10.50;99448.00;;;;5049602;28;20185;-68
2021/01/15 03:33:19;;;;;;;6.13;3.90;;;2.80;90.60;10.50;99440.00;;;;5032161;28;20200;-68
2021/01/15 03:35:45;;;;;;;6.33;3.80;;;2.80;90.60;10.40;99461.00;;;;5033093;28;20640;-68
2021/01/15 03:38:11;;;;;;;6.33;4.13;;;2.80;90.60;10.40;99453.00;;;;5032334;28;20209;-68
2021/01/15 03:40:39;;;;;;;6.50;3.40;;;2.80;90.70;10.40;99453.00;;;;5048723;28;21069;-68
2021/01/15 03:43:21;;;;;;;5.80;3.25;;;2.80;90.60;10.40;99466.00;;;;5032410;28;20704;-68
2021/01/15 03:45:47;;;;;;;7.43;3.95;;;2.80;91.00;10.40;99447.00;;;;5049363;28;20232;-68
2021/01/15 03:48:14;;;;;;;6.40;3.65;;;2.80;90.60;10.50;99461.00;;;;5030512;28;20194;-68
2021/01/15 03:50:40;;;;;;;5.78;3.47;;;2.80;90.60;10.50;99458.00;;;;5032772;28;20545;-68
2021/01/15 03:53:05;;;;;;;5.50;3.83;;;2.80;90.60;10.40;99457.00;;;;5048838;28;20201;-68
2021/01/15 03:55:35;;;;;;;7.67;4.30;;;2.80;90.60;10.50;99453.00;;;;5048656;28;20968;-69
2021/01/15 03:58:00;;;;;;;6.18;3.50;;;2.80;90.60;10.50;99457.00;;;;5032171;28;20209;-68
2021/01/15 04:00:26;;;;;;;6.47;4.10;;;2.80;90.60;10.30;99465.00;;;;5049174;28;20183;-68
2021/01/15 04:02:52;;;;;;;6.30;4.03;;;2.80;90.60;10.20;99464.00;;;;5047965;28;20705;-68
2021/01/15 04:05:18;;;;;;;5.67;3.90;;;2.80;90.60;10.20;99455.00;;;;5048970;28;20196;-68
2021/01/15 04:07:43;;;;;;;6.47;3.70;;;2.80;90.70;10.20;99452.00;;;;5015212;28;20205;-68
2021/01/15 04:10:14;;;;;;;5.80;3.77;;;2.80;90.60;10.40;99470.00;;;;5049821;28;20193;-69
2021/01/15 04:12:40;;;;;;;5.82;3.13;;;2.80;90.60;10.30;99467.00;;;;5032288;28;20691;-68
2021/01/15 04:15:24;;;;;;;6.43;3.85;;;2.80;90.70;10.30;99468.00;;;;5032127;28;20182;-68
2021/01/15 04:17:50;;;;;;;6.35;3.35;;;2.80;90.60;10.40;99468.00;;;;5048255;28;20201;-68
2021/01/15 04:20:15;;;;;;;6.30;3.70;;;2.80;90.60;10.30;99466.00;;;;5032208;28;20178;-68
2021/01/15 04:22:43;;;;;;;6.30;4.60;;;2.80;90.60;10.20;99462.00;;;;5047917;28;20279;-68
2021/01/15 04:25:10;;;;;;;6.35;3.83;;;2.80;90.60;10.40;99468.00;;;;5032344;28;20403;-68
2021/01/15 04:27:36;;;;;;;6.30;3.38;;;2.80;90.60;10.20;99456.00;;;;5031894;28;20206;-69
2021/01/15 04:30:04;;;;;;;6.45;3.60;;;2.80;90.60;10.20;99455.00;;;;5014996;28;20177;-69
2021/01/15 04:32:31;;;;;;;5.35;3.78;;;2.80;90.60;10.30;99454.00;;;;4999248;28;20217;-69
2021/01/15 04:34:57;;;;;;;6.50;3.88;;;2.80;90.70;10.20;99461.00;;;;5031931;28;20178;-68
2021/01/15 04:37:23;;;;;;;6.70;3.97;;;2.80;90.60;10.30;99456.00;;;;5049195;28;20579;-69
2021/01/15 04:39:48;;;;;;;7.40;4.73;;;2.80;90.60;10.30;99449.00;;;;5015512;28;20194;-70
2021/01/15 04:42:15;;;;;;;5.30;3.40;;;2.80;90.70;10.30;99454.00;;;;5048516;28;20282;-68
2021/01/15 04:44:42;;;;;;;6.10;3.90;;;2.80;90.60;10.30;99455.00;;;;5031316;28;20174;-68
2021/01/15 04:47:08;;;;;;;6.22;3.83;;;2.80;90.70;10.20;99449.00;;;;5031757;28;20182;-68
2021/01/15 04:49:36;;;;;;;6.28;3.67;;;2.80;90.70;10.20;99463.00;;;;5015330;28;20219;-68
2021/01/15 04:52:02;;;;;;;5.50;3.35;;;2.80;90.60;10.10;99471.00;;;;5015715;28;20190;-68
2021/01/15 04:54:38;;;;;;;7.05;4.40;;;2.80;90.60;10.20;99451.00;;;;5031616;28;20240;-68
2021/01/15 04:57:10;;;;;;;6.95;3.60;;;2.80;90.60;10.10;99477.00;;;;5048552;28;20212;-68
2021/01/15 04:59:47;;;;;;;6.32;3.95;;;2.80;90.60;10.20;99475.00;;;;4997852;28;20178;-68
2021/01/15 05:02:17;;;;;;;6.10;3.60;;;2.80;90.60;10.20;99481.00;;;;4999566;28;20239;-68
2021/01/15 05:04:43;;;;;;;5.85;3.70;;;2.80;90.60;10.30;99467.00;;;;5014651;28;20186;-68
2021/01/15 05:07:14;;;;;;;6.07;3.90;;;2.80;90.60;10.30;99475.00;;;;5031994;28;20265;-67
2021/01/15 05:09:44;;;;;;;6.28;3.65;;;2.80;90.60;10.20;99480.00;;;;5048025;28;20518;-67
2021/01/15 05:12:15;;;;;;;5.50;3.58;;;2.80;90.60;10.20;99485.00;;;;5014773;28;20186;-67
2021/01/15 05:14:48;;;;;;;5.60;3.55;;;2.80;90.60;10.10;99482.00;;;;4998834;28;20186;-67
2021/01/15 05:17:15;;;;;;;5.30;3.17;;;2.80;90.60;10.20;99483.00;;;;5033004;28;20186;-67
2021/01/15 05:19:42;;;;;;;6.32;3.67;;;2.80;90.60;10.30;99499.00;;;;5035365;28;20181;-67
2021/01/15 05:22:08;;;;;;;6.78;3.75;;;2.80;90.60;10.00;99489.00;;;;5018995;28;20214;-67
2021/01/15 05:24:35;;;;;;;6.30;3.92;;;2.80;90.60;10.20;99485.00;;;;5018251;28;20182;-67
2021/01/15 05:30:23;;;;;;;6.00;3.30;;;2.80;90.70;10.30;99503.00;;;;5023937;28;20557;-68
2021/01/15 05:32:59;;;;;;;6.15;3.90;;;2.80;90.70;10.30;99471.00;;;;5019051;28;20285;-67
2021/01/15 05:35:51;;;;;;;6.97;4.05;;;2.80;90.70;10.20;99510.00;;;;5035039;28;20259;-67
2021/01/15 05:38:18;;;;;;;5.80;3.42;;;2.80;90.60;10.30;99499.00;;;;5035462;28;20210;-67
2021/01/15 05:40:51;;;;;;;6.40;3.50;;;2.80;90.60;10.10;99503.00;;;;5051058;28;20680;-68
2021/01/15 05:43:28;;;;;;;5.53;3.60;;;2.80;90.60;10.10;99511.00;;;;5035087;28;20568;-68
2021/01/15 05:46:18;;;;;;;6.30;3.88;;;2.80;90.60;10.20;99528.00;;;;5035713;28;20185;-68
2021/01/15 05:48:48;;;;;;;7.13;3.97;;;2.80;90.60;10.10;99522.00;;;;5035605;28;20198;-68
2021/01/15 05:51:31;;;;;;;6.55;3.83;;;2.80;90.60;10.10;99520.00;;;;5018491;28;20181;-68
2021/01/15 05:53:57;;;;;;;5.38;3.50;;;2.80;90.60;10.10;99535.00;;;;5034368;28;20320;-68
2021/01/15 05:56:24;;;;;;;5.43;3.30;;;2.80;90.70;10.20;99536.00;;;;5002176;28;20572;-68
2021/01/15 05:59:07;;;;;;;6.05;3.53;;;2.80;90.60;10.20;99542.00;;;;5034756;28;20275;-68
2021/01/15 06:01:43;;;;;;;7.05;3.88;;;2.80;90.60;10.20;99527.00;;;;5034748;28;20225;-68
2021/01/15 06:04:09;;;;;;;6.25;3.80;;;2.80;90.60;10.20;99541.00;;;;5034214;28;20206;-68
2021/01/15 06:06:35;;;;;;;6.55;3.47;;;2.80;90.70;10.30;99540.00;;;;5035004;28;20182;-68
2021/01/15 06:09:05;;;;;;;6.13;3.50;;;2.80;90.60;10.10;99541.00;;;;5033829;28;20607;-67
2021/01/15 06:11:36;;;;;;;6.60;3.70;;;2.80;90.60;10.10;99545.00;;;;5002466;28;20221;-68
2021/01/15 06:14:02;;;;;;;7.13;3.88;;;2.80;90.60;10.20;99539.00;;;;5034966;28;20267;-67
2021/01/15 06:16:28;;;;;;;6.78;3.60;;;2.80;90.60;10.20;99538.00;;;;5016988;28;20228;-67
2021/01/15 06:18:57;;;;;;;6.13;3.60;;;2.80;90.60;10.20;99541.00;;;;5052450;28;20560;-67
2021/01/15 06:21:29;;;;;;;5.93;3.65;;;2.80;90.70;10.00;99545.00;;;;5034159;28;20190;-68
2021/01/15 06:23:56;;;;;;;5.95;3.88;;;2.80;90.60;10.00;99556.00;;;;5034297;28;20722;-68
2021/01/15 06:26:29;;;;;;;6.70;4.68;;;2.80;90.60;10.20;99546.00;;;;5034718;28;20266;-69
2021/01/15 06:29:04;;;;;;;6.88;4.03;;;2.80;90.60;10.10;99497.00;;;;5001439;28;20241;-68
2021/01/15 06:31:34;;;;;;;6.28;3.50;;;2.80;90.70;10.10;99550.00;;;;5018545;28;20284;-68
2021/01/15 06:34:00;;;;;;;5.28;3.63;;;2.80;90.70;10.00;99546.00;;;;5018911;28;20206;-68
2021/01/15 06:36:52;;;;;;;6.32;3.90;;;2.80;90.60;10.20;99552.00;;;;5033420;28;20225;-68
2021/01/15 06:39:18;;;;;;;6.15;3.38;;;2.80;90.60;10.20;99546.00;;;;5050679;28;20263;-68
2021/01/15 06:41:44;;;;;;;5.22;3.50;;;2.70;90.60;10.20;99549.00;;;;5033829;28;20289;-68
2021/01/15 06:44:14;;;;;;;5.30;3.83;;;2.80;90.70;10.20;99548.00;;;;5017083;28;20289;-68
2021/01/15 06:46:42;;;;;;;5.03;3.20;;;2.80;90.70;10.30;99540.00;;;;5017680;28;20435;-68
2021/01/15 06:49:17;;;;;;;6.28;3.63;;;2.70;90.60;10.10;99557.00;;;;5034028;28;20244;-68
2021/01/15 06:51:56;;;;;;;5.40;3.10;;;2.70;90.60;10.30;99568.00;;;;5016495;28;20205;-67
2021/01/15 06:54:27;;;;;;;6.25;4.22;;;2.80;90.60;10.10;99567.00;;;;5050063;28;20236;-67
2021/01/15 06:57:14;;;;;;;6.35;3.90;;;2.80;90.70;10.10;99560.00;;;;5033569;28;20212;-67
2021/01/15 06:59:40;;;;;;;6.72;4.70;;;2.80;90.70;10.20;99561.00;;;;5034331;28;20182;-69
2021/01/15 07:02:10;;;;;;;6.25;4.03;;;2.80;90.60;10.00;99569.00;;;;5050377;28;20289;-67
2021/01/15 07:04:55;;;;;;;6.55;4.35;;;2.70;90.60;10.10;99567.00;;;;5049361;28;20212;-67
2021/01/15 07:07:21;;;;;;;6.00;4.43;;;2.70;90.60;10.10;99567.00;;;;5050354;28;20216;-67
2021/01/15 07:09:47;;;;;;;5.67;3.50;;;2.70;90.60;10.20;99580.00;;;;5032999;28;20182;-67
2021/01/15 07:12:18;;;;;;;6.57;4.00;;;2.70;90.60;10.30;99578.00;;;;5016520;28;20202;-67
2021/01/15 07:14:56;;;;;;;6.90;3.75;;;2.70;90.60;10.20;99582.00;;;;5017159;28;20441;-67
2021/01/15 07:17:36;;;;;;;7.40;3.72;;;2.70;90.60;10.30;99567.00;;;;5032971;28;20700;-67
2021/01/15 07:20:12;;;;;;;6.55;4.20;;;2.70;90.60;10.10;99598.00;;;;5000011;28;20200;-68
2021/01/15 07:22:59;;;;;;;5.88;3.80;;;2.70;90.60;10.00;99601.00;;;;5033219;28;20222;-67
2021/01/15 07:25:25;;;;;;;6.47;3.80;;;2.80;90.70;10.10;99589.00;;;;5045017;28;20206;-67
2021/01/15 07:27:51;;;;;;;7.67;4.67;;;2.70;90.60;10.00;99596.00;;;;5049730;28;20254;-67
2021/01/15 07:30:24;;;;;;;5.40;3.88;;;2.70;90.60;10.00;99606.00;;;;5049371;28;20802;-68
2021/01/15 07:32:51;;;;;;;6.70;3.83;;;2.70;90.60;10.10;99608.00;;;;5049012;28;20563;-67
2021/01/15 07:35:18;;;;;;;6.88;4.30;;;2.80;90.70;10.10;99605.00;;;;5032497;28;20296;-67
2021/01/15 07:37:44;;;;;;;7.10;4.05;;;2.70;90.60;10.20;99609.00;;;;5064137;28;20619;-67
2021/01/15 07:40:20;;;;;;;6.10;4.13;;;2.80;90.60;10.20;99613.00;;;;5048523;28;20186;-67
2021/01/15 07:42:59;;;;;;;6.75;3.97;;;2.70;90.60;10.10;99603.00;;;;5029549;28;20218;-67
2021/01/15 07:45:27;;;;;;;7.68;4.57;;;2.70;90.60;10.20;99603.00;;;;5028219;28;20194;-67
2021/01/15 07:48:01;;;;;;;6.72;4.25;;;2.70;90.60;10.20;99606.00;;;;5028088;28;20199;-68
2021/01/15 07:50:35;;;;;;;8.02;4.70;;;2.70;90.60;10.10;99606.00;;;;5028520;28;20583;-67
2021/01/15 07:53:15;;;;;;;6.75;5.03;;;2.70;90.60;10.10;99607.00;;;;5016130;28;20641;-67
2021/01/15 07:55:44;;;;;;;8.20;4.72;;;2.70;90.60;10.10;99603.00;;;;5049393;28;20220;-67
2021/01/15 07:58:10;;;;;;;6.28;4.07;;;2.80;90.70;10.10;99597.00;;;;5048862;28;20267;-67
2021/01/15 08:00:37;;;;;;;6.90;4.35;;;2.70;90.60;10.10;99606.00;;;;5013920;28;20193;-67
2021/01/15 08:03:03;;;;;;;7.22;4.50;;;2.70;90.60;10.00;99612.00;;;;5032282;28;20692;-68
2021/01/15 08:05:29;;;;;;;8.50;4.50;;;2.70;90.60;10.10;99594.00;;;;5047785;28;20196;-67
2021/01/15 08:08:12;;;;;;;6.17;4.37;;;2.70;90.60;10.20;99604.00;;;;5030454;28;20506;-67
2021/01/15 08:10:48;;;;;;;6.40;4.03;;;2.70;90.60;10.30;99598.00;;;;5047822;28;20447;-67
2021/01/15 08:13:27;;;;;;;6.55;4.45;;;2.70;90.60;10.20;99611.00;;;;5018056;28;20202;-67
2021/01/15 08:15:56;;;;;;;8.55;5.10;;;2.70;90.60;10.10;99608.00;;;;5014175;28;20236;-68
2021/01/15 08:18:23;;;;;;;6.32;4.40;;;2.70;90.60;10.30;99599.00;;;;5016392;28;20787;-67
2021/01/15 08:20:58;;;;;;;8.07;4.75;;;2.70;90.60;10.10;99602.00;;;;5015632;28;20178;-67
2021/01/15 08:23:26;;;;;;;7.00;4.63;;;2.80;90.70;10.20;99599.00;;;;5049077;28;20217;-67
2021/01/15 08:26:32;;;;;;;9.13;5.00;;;2.80;90.70;10.10;99604.00;;;;5031306;28;20553;-67
2021/01/15 08:28:57;;;;;;;8.02;4.72;;;2.80;90.70;10.30;99604.00;;;;5024762;28;20763;-67
2021/01/15 08:31:23;;;;;;;6.70;4.10;;;2.80;90.70;10.20;99592.00;;;;5048206;28;20261;-67
2021/01/15 08:34:11;;;;;;;7.70;4.60;;;2.80;90.70;10.20;99607.00;;;;4999266;28;20599;-67
2021/01/15 08:36:49;;;;;;;9.10;5.10;;;2.80;90.70;10.20;99607.00;;;;5048786;28;20276;-67
2021/01/15 08:39:15;;;;;;;7.30;4.88;;;2.80;90.70;10.10;99616.00;;;;5015621;28;20232;-67
2021/01/15 08:41:41;;;;;;;7.33;4.60;;;2.80;90.70;10.10;99612.00;;;;5047411;28;20221;-67
2021/01/15 08:44:08;;;;;;;6.70;4.57;;;2.80;90.60;10.20;99611.00;;;;5064616;28;20201;-67
2021/01/15 08:46:34;;;;;;;7.40;4.70;;;2.80;90.70;10.30;99614.00;;;;5047165;28;20253;-67
2021/01/15 08:49:00;;;;;;;7.15;4.88;;;2.80;91.00;10.20;99616.00;;;;5014793;28;20272;-67
2021/01/15 08:51:27;;;;;;;7.70;4.95;;;2.80;90.70;10.30;99624.00;;;;5046737;28;20194;-67
2021/01/15 08:54:05;;;;;;;7.32;4.60;;;2.80;90.60;10.00;99630.00;;;;5034432;28;20208;-67
2021/01/15 08:56:51;;;;;;;8.90;5.70;;;2.80;90.70;10.20;99619.00;;;;5036346;28;20204;-68
2021/01/15 08:59:31;;;;;;;9.35;5.78;;;2.80;90.60;10.20;99616.00;;;;5068460;28;20198;-67
2021/01/15 09:01:59;;;;;;;7.10;4.65;;;2.80;90.70;10.10;99627.00;;;;5050321;28;20675;-67
2021/01/15 09:04:27;;;;;;;7.90;5.18;;;2.80;90.60;10.30;99616.00;;;;5051109;28;20237;-67
2021/01/15 09:06:57;;;;;;;9.27;4.93;;;2.80;90.60;10.30;99627.00;;;;5049274;28;20190;-67
2021/01/15 09:09:28;;;;;;;8.93;5.28;;;2.80;90.60;10.20;99622.00;;;;5051850;28;20762;-67
2021/01/15 09:11:54;;;;;;;9.23;5.55;;;2.80;90.60;10.10;99601.00;;;;5051697;28;20281;-67
2021/01/15 09:14:23;;;;;;;8.77;5.23;;;2.80;90.60;10.30;99619.00;;;;5052639;28;20612;-67
2021/01/15 09:16:52;;;;;;;7.55;5.03;;;2.80;90.60;10.40;99621.00;;;;5051461;28;20421;-67
2021/01/15 09:19:18;;;;;;;7.93;5.00;;;2.80;90.60;10.30;99634.00;;;;5051582;28;20213;-67
2021/01/15 09:21:47;;;;;;;8.70;5.33;;;2.80;90.60;10.40;99644.00;;;;5051192;28;20210;-67
2021/01/15 09:24:14;;;;;;;7.85;5.30;;;2.80;90.60;10.30;99647.00;;;;5051976;28;20427;-67
2021/01/15 09:26:40;;;;;;;8.02;5.32;;;2.80;90.60;10.20;99615.00;;;;5051228;28;20178;-67
2021/01/15 09:29:06;;;;;;;9.18;6.15;;;2.80;90.60;10.40;99633.00;;;;5052213;28;20198;-67
2021/01/15 09:31:32;;;;;;;7.82;5.53;;;2.80;90.60;10.20;99616.00;;;;5050851;28;20739;-67
2021/01/15 09:33:58;;;;;;;9.90;5.37;;;2.80;90.60;10.40;99623.00;;;;5051386;28;20197;-67
2021/01/15 09:36:27;;;;;;;9.57;5.70;;;2.80;90.60;10.30;99625.00;;;;5051550;28;20253;-67
2021/01/15 09:38:55;;;;;;;8.15;5.22;;;2.80;90.60;10.30;99626.00;;;;5051633;28;20208;-67
2021/01/15 09:41:21;;;;;;;9.15;5.72;;;2.80;91.00;10.30;99630.00;;;;5051276;28;20239;-67
2021/01/15 09:43:47;;;;;;;8.53;5.37;;;2.80;90.60;10.30;99639.00;;;;5051340;28;20201;-67
2021/01/15 09:46:26;;;;;;;7.70;4.93;;;2.80;90.60;10.30;99639.00;;;;5050675;28;20471;-67
2021/01/15 09:48:54;;;;;;;8.20;5.35;;;2.80;90.60;10.60;99647.00;;;;5050495;28;20479;-67
2021/01/15 09:51:28;;;;;;;7.10;5.30;;;2.80;90.60;10.50;99626.00;;;;5050688;28;20193;-67
2021/01/15 09:53:55;;;;;;;8.68;6.00;;;2.80;90.60;10.40;99629.00;;;;5067747;28;20314;-67
2021/01/15 09:56:42;;;;;;;9.65;5.90;;;2.90;90.70;10.30;99614.00;;;;5049819;28;20226;-67
2021/01/15 09:59:12;;;;;;;6.38;4.55;;;2.90;90.70;10.30;99634.00;;;;5051000;28;20209;-67
2021/01/15 10:01:38;;;;;;;8.52;5.70;;;2.90;90.70;10.50;99633.00;;;;5049677;28;20837;-67
2021/01/15 10:04:04;;;;;;;9.07;5.57;;;2.90;90.70;10.50;99644.00;;;;5048830;28;20292;-67
2021/01/15 10:06:32;;;;;;;7.60;4.93;;;2.90;90.70;10.40;99643.00;;;;5016798;28;20321;-67
2021/01/15 10:08:58;;;;;;;8.15;5.72;;;2.90;90.70;10.40;99636.00;;;;5051516;28;20553;-67
2021/01/15 10:11:24;;;;;;;8.85;6.25;;;2.90;90.70;10.40;99641.00;;;;5016442;28;20201;-69
2021/01/15 10:13:53;;;;;;;8.68;5.85;;;2.90;90.70;10.50;99630.00;;;;5051772;28;20209;-67
2021/01/15 10:16:18;;;;;;;8.02;5.28;;;2.90;90.70;10.50;99642.00;;;;5033352;28;20759;-67
2021/01/15 10:18:44;;;;;;;7.77;5.50;;;2.90;90.70;10.60;99638.00;;;;5050358;28;20210;-67
2021/01/15 10:21:10;;;;;;;8.53;6.20;;;2.90;90.70;10.50;99617.00;;;;5051457;28;20197;-67
2021/01/15 10:23:36;;;;;;;7.50;5.57;;;2.90;90.70;10.40;99650.00;;;;5033043;28;20214;-67
2021/01/15 10:26:03;;;;;;;7.30;4.57;;;2.90;90.70;10.40;99643.00;;;;5033535;28;20181;-68
2021/01/15 10:28:29;;;;;;;8.20;5.50;;;2.90;90.70;10.50;99653.00;;;;5015898;28;20627;-67
2021/01/15 10:30:55;;;;;;;9.67;6.00;;;2.90;90.70;10.10;99640.00;;;;5033778;28;20189;-68
2021/01/15 10:33:22;;;;;;;8.60;6.27;;;2.90;90.70;10.30;99634.00;;;;5015489;28;20514;-67
2021/01/15 10:35:49;;;;;;;8.00;5.32;;;2.90;90.70;10.30;99642.00;;;;5016284;28;20175;-68
2021/01/15 10:38:15;;;;;;;8.20;5.43;;;2.90;90.70;10.40;99643.00;;;;5033507;28;20637;-67
2021/01/15 10:40:41;;;;;;;8.57;5.37;;;2.90;90.70;10.40;99642.00;;;;5033444;28;20201;-67
2021/01/15 10:43:07;;;;;;;9.70;5.75;;;2.90;90.70;10.40;99647.00;;;;5032705;28;20484;-67
2021/01/15 10:45:33;;;;;;;9.83;5.97;;;2.90;90.70;10.40;99649.00;;;;5049801;28;20673;-68
2021/01/15 10:47:58;;;;;;;8.53;5.50;;;2.90;90.70;10.40;99634.00;;;;5047940;28;20229;-67
2021/01/15 10:50:24;;;;;;;6.40;4.70;;;2.90;90.70;10.30;99650.00;;;;5049614;28;20182;-67
2021/01/15 10:52:53;;;;;;;9.10;5.83;;;2.90;90.70;10.40;99645.00;;;;5049772;28;20247;-67
2021/01/15 10:55:19;;;;;;;7.70;5.10;;;2.90;90.70;10.20;99641.00;;;;5049251;28;20186;-67
2021/01/15 10:57:45;;;;;;;7.90;5.60;;;2.90;90.70;10.20;99632.00;;;;5032454;28;20621;-67
2021/01/15 11:00:13;;;;;;;8.27;5.40;;;2.90;90.70;10.40;99648.00;;;;5049060;28;20433;-67
2021/01/15 11:02:39;;;;;;;7.65;5.38;;;2.90;90.70;10.40;99646.00;;;;5047718;28;20768;-67
2021/01/15 11:05:07;;;;;;;8.10;5.67;;;2.90;90.70;10.40;99633.00;;;;5049517;28;20288;-67
2021/01/15 11:07:33;;;;;;;9.73;5.40;;;2.90;90.70;10.40;99650.00;;;;5048943;28;20206;-67
2021/01/15 11:09:59;;;;;;;8.88;5.35;;;2.90;90.70;10.40;99644.00;;;;5032521;28;20285;-67
2021/01/15 11:12:25;;;;;;;8.38;6.13;;;2.90;90.70;10.40;99643.00;;;;5048523;28;20213;-67
2021/01/15 11:14:51;;;;;;;7.33;5.47;;;2.90;90.70;10.50;99638.00;;;;5049414;28;20178;-67
2021/01/15 11:17:16;;;;;;;8.30;5.30;;;2.90;90.70;10.50;99646.00;;;;5048015;28;20182;-68